Time;durP1;ratioP1;P1;durP2;ratioP2;P2;SDS_P1;SDS_P2;PMS_P1;PMS_P2;Temp;Humidity;BMP_temperature;BMP_pressure;BME280_temperature;BME280_humidity;BME280_pressure;Samples;Min_cycle;Max_cycle;Signal;HPM_P1;HPM_P2
2022/11/01 00:01:55;;;;;;;15.68;7.22;;;12.10;99.90;;;;;;5090239;28;20048;-86
2022/11/01 00:04:21;;;;;;;21.35;7.78;;;12.10;99.90;;;;;;5106327;28;20389;-86
2022/11/01 00:06:49;;;;;;;18.35;7.00;;;12.10;99.90;;;;;;5089676;28;20033;-85
2022/11/01 00:09:16;;;;;;;19.75;7.97;;;12.10;99.90;;;;;;5073053;28;20131;-85
2022/11/01 00:11:43;;;;;;;17.73;7.35;;;12.10;99.90;;;;;;5106231;28;20047;-86
2022/11/01 00:14:12;;;;;;;18.08;6.93;;;12.10;99.90;;;;;;5072410;28;20512;-85
2022/11/01 00:16:40;;;;;;;19.27;7.20;;;12.20;99.90;;;;;;5056698;28;20041;-86
2022/11/01 00:19:07;;;;;;;15.93;6.97;;;12.20;99.90;;;;;;5085697;28;20041;-85
2022/11/01 00:21:33;;;;;;;19.63;6.80;;;12.20;99.90;;;;;;5053079;28;20045;-85
2022/11/01 00:24:00;;;;;;;15.15;7.15;;;12.20;99.90;;;;;;5052604;28;20095;-85
2022/11/01 00:26:27;;;;;;;20.73;7.40;;;12.20;99.90;;;;;;5053133;28;20048;-85
2022/11/01 00:28:54;;;;;;;16.55;7.68;;;12.30;99.90;;;;;;5052488;28;20045;-85
2022/11/01 00:31:22;;;;;;;19.15;6.97;;;12.30;99.90;;;;;;5052198;28;20405;-85
2022/11/01 00:33:49;;;;;;;19.73;7.20;;;12.20;99.90;;;;;;5052347;28;20511;-85
2022/11/01 00:36:15;;;;;;;16.60;6.57;;;12.30;99.90;;;;;;5052394;28;20088;-85
2022/11/01 00:38:42;;;;;;;14.27;7.22;;;12.20;99.90;;;;;;5053630;28;20476;-85
2022/11/01 00:41:09;;;;;;;15.43;7.13;;;12.20;99.90;;;;;;5088693;28;20543;-85
2022/11/01 00:43:36;;;;;;;14.00;6.63;;;12.20;99.90;;;;;;5055992;28;20540;-85
2022/11/01 00:46:04;;;;;;;16.67;6.68;;;12.20;99.90;;;;;;5072222;28;20123;-85
2022/11/01 00:48:30;;;;;;;15.68;6.82;;;12.20;99.90;;;;;;5072289;28;20037;-86
2022/11/01 00:50:57;;;;;;;18.08;6.35;;;12.30;99.90;;;;;;5072364;28;20044;-86
2022/11/01 00:53:24;;;;;;;18.52;6.95;;;12.20;99.90;;;;;;5122255;28;20044;-85
2022/11/01 00:55:51;;;;;;;17.48;6.55;;;12.30;99.90;;;;;;5072358;28;20033;-85
2022/11/01 00:58:18;;;;;;;22.25;6.40;;;12.20;99.90;;;;;;5071876;28;20078;-85
2022/11/01 01:00:46;;;;;;;17.40;7.03;;;12.30;99.90;;;;;;5122451;28;20044;-86
2022/11/01 01:03:13;;;;;;;19.42;7.30;;;12.30;99.90;;;;;;5071694;28;20127;-85
2022/11/01 01:05:40;;;;;;;13.20;6.45;;;12.40;99.90;;;;;;5088784;28;20179;-85
2022/11/01 01:08:06;;;;;;;16.90;6.50;;;12.30;99.90;;;;;;5088469;28;20032;-84
2022/11/01 01:10:34;;;;;;;13.15;6.60;;;12.30;99.90;;;;;;5071291;28;20405;-85
2022/11/01 01:13:01;;;;;;;13.60;6.43;;;12.40;99.90;;;;;;5071457;28;20091;-86
2022/11/01 01:15:28;;;;;;;13.20;6.03;;;12.40;99.90;;;;;;5088004;28;20084;-85
2022/11/01 01:17:55;;;;;;;18.52;6.03;;;12.50;99.90;;;;;;5071755;28;20052;-86
2022/11/01 01:20:22;;;;;;;14.30;6.35;;;12.50;99.90;;;;;;5071608;28;20066;-85
2022/11/01 01:22:49;;;;;;;15.88;6.63;;;12.50;99.90;;;;;;5088275;28;20041;-86
2022/11/01 01:25:16;;;;;;;13.10;6.30;;;12.50;99.90;;;;;;5088053;28;20083;-86
2022/11/01 01:27:43;;;;;;;12.10;5.65;;;12.50;99.90;;;;;;5088171;28;20033;-85
2022/11/01 01:30:10;;;;;;;18.17;6.38;;;12.60;99.90;;;;;;5099131;28;20040;-86
2022/11/01 01:32:36;;;;;;;18.42;6.60;;;12.60;99.90;;;;;;5058198;28;20098;-86
2022/11/01 01:35:04;;;;;;;12.88;5.80;;;12.70;99.90;;;;;;5088419;28;20048;-85
2022/11/01 01:37:30;;;;;;;18.98;5.93;;;12.70;99.90;;;;;;5087849;28;20451;-85
2022/11/01 01:39:57;;;;;;;14.20;5.38;;;12.70;99.90;;;;;;5087844;28;20091;-86
2022/11/01 01:42:30;;;;;;;18.15;6.28;;;12.70;99.90;;;;;;5087725;28;20124;-85
2022/11/01 01:44:57;;;;;;;15.65;6.13;;;12.70;99.90;;;;;;5071044;28;20091;-86
2022/11/01 01:47:35;;;;;;;18.58;5.60;;;12.80;99.90;;;;;;5121355;28;20033;-86
2022/11/01 01:50:11;;;;;;;11.88;5.20;;;12.80;99.90;;;;;;5071058;28;20484;-85
2022/11/01 01:53:08;;;;;;;11.95;5.18;;;12.80;99.90;;;;;;5103875;28;20477;-86
2022/11/01 01:55:58;;;;;;;17.23;5.65;;;12.80;99.90;;;;;;5120824;28;20544;-85
2022/11/01 01:58:33;;;;;;;16.88;5.60;;;12.90;99.90;;;;;;5120918;28;20041;-85
2022/11/01 02:01:00;;;;;;;13.60;5.28;;;12.90;99.90;;;;;;5070924;28;20049;-85
2022/11/01 02:03:30;;;;;;;18.00;5.15;;;12.90;99.90;;;;;;5070516;28;20033;-86
2022/11/01 02:06:19;;;;;;;11.18;4.90;;;13.00;99.90;;;;;;5071068;28;20076;-85
2022/11/01 02:08:53;;;;;;;12.38;5.55;;;13.00;99.90;;;;;;5070585;28;20049;-86
2022/11/01 02:11:20;;;;;;;9.98;4.82;;;13.00;99.90;;;;;;5070660;28;20041;-85
2022/11/01 02:13:47;;;;;;;12.20;5.25;;;13.00;99.90;;;;;;5070320;28;20417;-85
2022/11/01 02:16:16;;;;;;;12.85;4.75;;;13.00;99.90;;;;;;5087000;28;20507;-86
2022/11/01 02:18:55;;;;;;;12.73;5.15;;;13.00;99.90;;;;;;5103396;28;20049;-85
2022/11/01 02:21:39;;;;;;;13.40;4.82;;;13.00;99.90;;;;;;5120306;28;20068;-85
2022/11/01 02:24:06;;;;;;;11.18;4.40;;;13.00;99.90;;;;;;5069690;28;20037;-86
2022/11/01 02:26:55;;;;;;;12.68;5.20;;;13.00;99.90;;;;;;5103149;28;20041;-85
2022/11/01 02:29:57;;;;;;;12.75;4.72;;;13.00;99.90;;;;;;5069999;28;20405;-85
2022/11/01 02:32:44;;;;;;;11.48;4.65;;;13.10;99.90;;;;;;5086463;28;20041;-85
2022/11/01 02:35:25;;;;;;;11.88;4.72;;;13.10;99.90;;;;;;5140665;28;20087;-86
2022/11/01 02:38:18;;;;;;;12.55;4.25;;;13.00;99.90;;;;;;5072750;28;20040;-86
2022/11/01 02:41:12;;;;;;;9.85;4.63;;;13.00;99.90;;;;;;5122865;28;20041;-85
2022/11/01 02:43:56;;;;;;;8.18;4.28;;;13.00;99.90;;;;;;5101741;28;20034;-85
2022/11/01 02:49:14;;;;;;;9.43;4.50;;;13.10;99.90;;;;;;5100375;28;20098;-85
2022/11/01 02:51:43;;;;;;;13.05;4.95;;;13.10;99.90;;;;;;5119839;28;20595;-85
2022/11/01 02:54:21;;;;;;;9.07;4.30;;;13.10;99.90;;;;;;5102849;28;20447;-85
2022/11/01 02:56:49;;;;;;;11.48;4.45;;;13.10;99.90;;;;;;5086121;28;20154;-86
2022/11/01 02:59:22;;;;;;;16.88;4.50;;;13.10;99.90;;;;;;5085932;28;20139;-85
2022/11/01 03:01:58;;;;;;;12.32;4.43;;;13.10;99.90;;;;;;5119368;28;20485;-85
2022/11/01 03:04:25;;;;;;;9.50;4.32;;;13.10;99.90;;;;;;5069563;28;20037;-86
2022/11/01 03:06:57;;;;;;;10.20;4.45;;;13.20;99.90;;;;;;5069013;28;20048;-85
2022/11/01 03:09:24;;;;;;;15.25;4.32;;;13.20;99.90;;;;;;5069378;28;20041;-86
2022/11/01 03:12:14;;;;;;;11.18;4.53;;;13.20;99.90;;;;;;5102299;28;20044;-86
2022/11/01 03:15:00;;;;;;;13.18;4.40;;;13.20;99.90;;;;;;5102145;28;20095;-85
2022/11/01 03:17:39;;;;;;;12.40;4.28;;;13.20;99.90;;;;;;5069420;28;20048;-86
2022/11/01 03:20:22;;;;;;;11.27;4.13;;;13.20;99.90;;;;;;5119686;28;20033;-85
2022/11/01 03:22:54;;;;;;;9.75;4.85;;;13.20;99.90;;;;;;5069221;28;20472;-86
2022/11/01 03:25:46;;;;;;;13.18;3.88;;;13.20;99.90;;;;;;5102634;28;20056;-85
2022/11/01 03:28:39;;;;;;;11.35;3.85;;;13.30;99.90;;;;;;5119284;28;20203;-85
2022/11/01 03:31:13;;;;;;;9.27;3.92;;;13.30;99.90;;;;;;5066950;28;20238;-86
2022/11/01 03:33:45;;;;;;;8.57;3.70;;;13.30;99.90;;;;;;5068684;28;20493;-85
2022/11/01 03:36:16;;;;;;;10.73;4.00;;;13.30;99.90;;;;;;5102485;28;20040;-85
2022/11/01 03:38:52;;;;;;;10.45;3.80;;;13.40;99.90;;;;;;5102074;28;20036;-85
2022/11/01 03:41:22;;;;;;;7.05;3.80;;;13.40;99.90;;;;;;5069356;28;20132;-86
2022/11/01 03:43:49;;;;;;;10.68;4.10;;;13.50;99.90;;;;;;5068709;28;20037;-85
2022/11/01 03:46:15;;;;;;;8.57;3.78;;;13.50;99.90;;;;;;5085147;28;20044;-85
2022/11/01 03:48:42;;;;;;;7.85;3.63;;;13.50;99.90;;;;;;5068583;28;20436;-85
2022/11/01 03:51:09;;;;;;;9.77;3.58;;;13.50;99.90;;;;;;5068796;28;20568;-85
2022/11/01 03:53:36;;;;;;;12.82;4.28;;;13.60;99.90;;;;;;5068785;28;20083;-85
2022/11/01 03:56:03;;;;;;;11.52;3.90;;;13.60;99.90;;;;;;5102336;28;20468;-85
2022/11/01 03:58:40;;;;;;;9.13;3.50;;;13.60;99.90;;;;;;5085333;28;20037;-85
2022/11/01 04:01:12;;;;;;;10.75;3.72;;;13.60;99.90;;;;;;5083784;28;20038;-85
2022/11/01 04:03:39;;;;;;;7.28;3.90;;;13.70;99.90;;;;;;5102111;28;20072;-85
2022/11/01 04:06:07;;;;;;;10.27;3.75;;;13.70;99.90;;;;;;5085055;28;20037;-86
2022/11/01 04:08:35;;;;;;;10.32;3.70;;;13.70;99.90;;;;;;5068665;28;20041;-85
2022/11/01 04:11:03;;;;;;;15.25;3.60;;;13.80;99.90;;;;;;5085056;28;20073;-86
2022/11/01 04:13:32;;;;;;;7.38;3.30;;;13.80;99.90;;;;;;5102221;28;20485;-85
2022/11/01 04:21:30;;;;;;;8.98;3.72;;;13.80;99.90;;;;;;5085413;28;20049;-85
2022/11/01 04:23:57;;;;;;;10.23;3.70;;;13.80;99.90;;;;;;5084879;28;20040;-86
2022/11/01 04:26:24;;;;;;;11.05;3.50;;;13.80;99.90;;;;;;5085201;28;20041;-85
2022/11/01 04:28:56;;;;;;;10.57;3.28;;;13.80;99.90;;;;;;5068163;28;20048;-85
2022/11/01 04:31:26;;;;;;;10.77;3.67;;;13.80;99.90;;;;;;5101785;28;20485;-86
2022/11/01 04:33:53;;;;;;;10.07;3.45;;;13.80;99.90;;;;;;5118373;28;20436;-85
2022/11/01 04:36:20;;;;;;;9.50;3.60;;;13.90;99.90;;;;;;5085061;28;20044;-85
2022/11/01 04:38:49;;;;;;;7.05;3.75;;;13.90;99.90;;;;;;5067600;28;20041;-85
2022/11/01 04:41:17;;;;;;;6.00;3.20;;;13.90;99.90;;;;;;5068611;28;20049;-86
2022/11/01 04:43:48;;;;;;;10.73;3.70;;;13.90;99.90;;;;;;5068206;28;20091;-85
2022/11/01 04:46:15;;;;;;;9.10;3.20;;;13.90;99.90;;;;;;5086556;28;20091;-85
2022/11/01 04:48:42;;;;;;;8.90;2.85;;;13.80;99.90;;;;;;5105407;28;20041;-86
2022/11/01 04:51:09;;;;;;;10.20;3.53;;;13.80;99.90;;;;;;5072114;28;20519;-86
2022/11/01 04:53:36;;;;;;;6.82;2.67;;;13.90;99.90;;;;;;5088489;28;20056;-86
2022/11/01 04:56:04;;;;;;;6.85;3.05;;;13.90;99.90;;;;;;5104938;28;20488;-86
2022/11/01 04:58:33;;;;;;;9.50;2.90;;;13.90;99.90;;;;;;5104886;28;20040;-85
2022/11/01 05:01:05;;;;;;;6.35;2.88;;;13.90;99.90;;;;;;5122131;28;20080;-85
2022/11/01 05:03:32;;;;;;;12.57;3.10;;;13.90;99.90;;;;;;5072069;28;20471;-85
2022/11/01 05:05:59;;;;;;;7.68;3.67;;;13.90;99.90;;;;;;5104784;28;20071;-85
2022/11/01 05:08:26;;;;;;;11.95;3.65;;;14.00;99.90;;;;;;5121936;28;20535;-85
2022/11/01 05:10:54;;;;;;;9.90;3.22;;;14.00;99.90;;;;;;5088054;28;20527;-85
2022/11/01 05:13:21;;;;;;;10.95;3.10;;;14.10;99.90;;;;;;5071610;28;20133;-86
2022/11/01 05:15:48;;;;;;;5.80;2.90;;;14.10;99.90;;;;;;5071481;28;20576;-84
2022/11/01 05:18:14;;;;;;;8.52;3.30;;;14.00;99.90;;;;;;5071461;28;20090;-85
2022/11/01 05:20:41;;;;;;;11.70;3.30;;;14.00;99.90;;;;;;5071494;28;20045;-85
2022/11/01 05:23:08;;;;;;;10.73;3.72;;;14.00;99.90;;;;;;5071270;28;20477;-86
2022/11/01 05:25:35;;;;;;;8.27;3.03;;;14.00;99.90;;;;;;5104927;28;20052;-86
2022/11/01 05:28:06;;;;;;;8.60;3.63;;;14.00;99.90;;;;;;5087734;28;20052;-86
2022/11/01 05:30:33;;;;;;;5.28;2.45;;;14.00;99.90;;;;;;5071582;28;20465;-84
2022/11/01 05:33:01;;;;;;;8.65;3.03;;;14.00;99.90;;;;;;5087400;28;20091;-84
2022/11/01 05:35:29;;;;;;;14.73;3.78;;;13.90;99.90;;;;;;5104650;28;20615;-84
2022/11/01 05:37:56;;;;;;;6.45;3.00;;;13.90;99.90;;;;;;5070752;28;20041;-84
2022/11/01 05:40:23;;;;;;;8.38;3.20;;;13.90;99.90;;;;;;5121228;28;20047;-85
2022/11/01 05:42:50;;;;;;;9.27;3.03;;;13.90;99.90;;;;;;5071391;28;20127;-84
2022/11/01 05:45:16;;;;;;;10.25;3.35;;;13.90;99.90;;;;;;5087626;28;20135;-84
2022/11/01 05:47:43;;;;;;;15.95;3.45;;;13.90;99.90;;;;;;5071109;28;20098;-84
2022/11/01 05:50:12;;;;;;;10.23;3.50;;;13.90;99.90;;;;;;5104036;28;20071;-84
2022/11/01 05:52:39;;;;;;;6.38;2.88;;;13.80;99.90;;;;;;5076377;28;20032;-84
2022/11/01 05:55:07;;;;;;;7.32;3.08;;;13.90;99.90;;;;;;5074593;28;20044;-84
2022/11/01 05:57:34;;;;;;;9.68;3.25;;;14.00;99.90;;;;;;5091111;28;20508;-84
2022/11/01 06:00:02;;;;;;;8.00;2.95;;;13.90;99.90;;;;;;5074307;28;20037;-84
2022/11/01 06:02:32;;;;;;;11.05;3.40;;;14.00;99.90;;;;;;5054409;28;20174;-84
2022/11/01 06:04:59;;;;;;;7.55;2.67;;;14.00;99.90;;;;;;5129307;28;20033;-84
2022/11/01 06:07:25;;;;;;;13.45;3.17;;;14.10;99.90;;;;;;5057392;28;20047;-84
2022/11/01 06:09:52;;;;;;;9.80;2.90;;;14.00;99.90;;;;;;5072731;28;20119;-84
2022/11/01 06:12:23;;;;;;;5.97;2.60;;;14.20;99.90;;;;;;5096211;28;20075;-85
2022/11/01 06:14:50;;;;;;;7.13;3.10;;;14.20;99.90;;;;;;5085849;28;20044;-84
2022/11/01 06:17:17;;;;;;;11.40;2.85;;;14.30;99.90;;;;;;5073707;28;20105;-84
2022/11/01 06:19:43;;;;;;;11.32;2.97;;;14.30;99.90;;;;;;5057014;28;20032;-84
2022/11/01 06:22:10;;;;;;;12.20;2.72;;;14.30;99.90;;;;;;5070442;28;20037;-84
2022/11/01 06:24:37;;;;;;;4.25;2.40;;;14.50;99.90;;;;;;5038286;28;20120;-84
2022/11/01 06:27:03;;;;;;;5.40;2.83;;;14.50;99.90;;;;;;5053632;28;20106;-84
2022/11/01 06:29:30;;;;;;;6.18;2.42;;;14.60;99.90;;;;;;5053592;28;20076;-84
2022/11/01 06:31:56;;;;;;;5.55;2.30;;;14.60;99.90;;;;;;5053083;28;20102;-84
2022/11/01 06:34:23;;;;;;;6.18;2.25;;;14.70;99.90;;;;;;5036265;28;20079;-84
2022/11/01 06:36:50;;;;;;;5.43;1.77;;;14.70;99.90;;;;;;5053191;28;20090;-84
2022/11/01 06:39:17;;;;;;;5.10;2.00;;;14.60;99.90;;;;;;5052746;28;20048;-84
2022/11/01 06:41:44;;;;;;;6.03;1.80;;;14.60;99.90;;;;;;5053337;28;20048;-84
2022/11/01 06:44:10;;;;;;;4.57;1.30;;;14.60;99.90;;;;;;5052438;28;20478;-84
2022/11/01 06:46:37;;;;;;;5.03;1.30;;;14.60;99.90;;;;;;5044012;28;20408;-84
2022/11/01 06:49:04;;;;;;;11.75;1.25;;;14.50;99.90;;;;;;5073426;28;20086;-83
2022/11/01 06:51:30;;;;;;;6.32;1.27;;;14.50;99.90;;;;;;5043114;28;20068;-85
2022/11/01 06:53:57;;;;;;;4.63;1.02;;;14.50;99.90;;;;;;5075580;28;20043;-84
2022/11/01 06:56:24;;;;;;;6.18;1.23;;;14.40;99.90;;;;;;5063540;28;20055;-84
2022/11/01 06:58:50;;;;;;;3.40;0.90;;;14.30;99.90;;;;;;5078689;28;20389;-85
2022/11/01 07:01:17;;;;;;;2.92;1.05;;;14.20;99.90;;;;;;5040754;28;20036;-85
2022/11/01 07:03:44;;;;;;;3.45;1.45;;;14.10;99.90;;;;;;5052969;28;20063;-86
2022/11/01 07:06:11;;;;;;;2.50;0.90;;;14.00;99.90;;;;;;5069656;28;20126;-85
2022/11/01 07:08:38;;;;;;;5.55;1.00;;;13.90;99.90;;;;;;5060685;28;20549;-85
2022/11/01 07:11:05;;;;;;;5.00;1.27;;;13.80;99.90;;;;;;5051352;28;20056;-85
2022/11/01 07:13:33;;;;;;;3.20;0.90;;;13.80;99.90;;;;;;5075430;28;20091;-85
2022/11/01 07:16:02;;;;;;;5.60;1.13;;;13.70;99.90;;;;;;5053273;28;20053;-85
2022/11/01 07:18:30;;;;;;;2.28;1.08;;;13.70;99.90;;;;;;5085310;28;20036;-85
2022/11/01 07:21:03;;;;;;;2.92;0.98;;;13.60;99.90;;;;;;5085258;28;20131;-85
2022/11/01 07:23:30;;;;;;;2.10;0.93;;;13.50;99.90;;;;;;5069097;28;20076;-85
2022/11/01 07:25:57;;;;;;;4.25;1.00;;;13.50;99.90;;;;;;5085475;28;20134;-85
2022/11/01 07:28:24;;;;;;;2.42;0.98;;;13.40;99.90;;;;;;5102420;28;20102;-84
2022/11/01 07:30:52;;;;;;;6.72;1.10;;;13.50;99.90;;;;;;5085343;28;20059;-84
2022/11/01 07:33:19;;;;;;;3.72;1.45;;;13.50;99.90;;;;;;5052608;28;20037;-84
2022/11/01 07:35:47;;;;;;;3.88;0.80;;;13.50;99.90;;;;;;5069161;28;20558;-85
2022/11/01 07:38:14;;;;;;;4.40;1.30;;;13.50;99.90;;;;;;5069004;28;20457;-84
2022/11/01 07:40:41;;;;;;;2.90;0.82;;;13.50;99.90;;;;;;5071222;28;20059;-85
2022/11/01 07:43:08;;;;;;;6.15;0.95;;;13.50;99.90;;;;;;5058447;28;20032;-85
2022/11/01 07:45:35;;;;;;;2.28;0.80;;;13.50;99.90;;;;;;5064318;28;20806;-85
2022/11/01 07:48:09;;;;;;;6.82;1.08;;;13.40;99.90;;;;;;5052978;28;20421;-85
2022/11/01 07:50:36;;;;;;;5.32;0.95;;;13.40;99.90;;;;;;5069273;28;20064;-85
2022/11/01 07:53:15;;;;;;;6.72;0.70;;;13.40;99.90;;;;;;5056798;28;20033;-86
2022/11/01 07:55:42;;;;;;;5.72;1.38;;;13.50;99.90;;;;;;5082943;28;20035;-86
2022/11/01 07:58:10;;;;;;;5.43;0.80;;;13.50;99.90;;;;;;5078449;28;20064;-86
2022/11/01 08:00:38;;;;;;;2.05;0.75;;;13.60;99.90;;;;;;5095125;28;20033;-85
2022/11/01 08:03:07;;;;;;;2.88;0.90;;;13.60;99.90;;;;;;5078196;28;20121;-86
2022/11/01 08:05:34;;;;;;;4.28;0.90;;;13.60;99.90;;;;;;5076562;28;20409;-86
2022/11/01 08:08:02;;;;;;;6.85;1.20;;;13.70;99.90;;;;;;5068827;28;20040;-90
2022/11/01 08:10:29;;;;;;;3.05;0.85;;;13.80;99.90;;;;;;5085713;28;20086;-90
2022/11/01 08:13:03;;;;;;;4.63;1.00;;;13.80;99.90;;;;;;5086227;28;20102;-91
2022/11/01 08:15:30;;;;;;;2.43;0.80;;;13.90;99.90;;;;;;5077965;28;20052;-92
2022/11/01 08:17:58;;;;;;;7.47;1.10;;;14.00;99.90;;;;;;5081698;28;20279;-91
2022/11/01 08:20:26;;;;;;;7.05;1.10;;;14.10;99.90;;;;;;5075036;28;20516;-89
2022/11/01 08:22:53;;;;;;;8.52;1.00;;;14.10;99.90;;;;;;5104805;28;20041;-90
2022/11/01 08:25:20;;;;;;;7.00;0.77;;;14.10;99.90;;;;;;5041882;28;20048;-90
2022/11/01 08:27:47;;;;;;;7.93;1.52;;;14.20;99.90;;;;;;5075560;28;20044;-90
2022/11/01 08:30:15;;;;;;;4.90;1.00;;;14.20;99.90;;;;;;5057815;28;20056;-89
2022/11/01 08:32:41;;;;;;;5.63;1.00;;;14.20;99.90;;;;;;5060082;28;20129;-90
2022/11/01 08:35:10;;;;;;;6.20;1.10;;;14.20;99.90;;;;;;5063046;28;20037;-90
2022/11/01 08:37:46;;;;;;;5.03;0.88;;;14.30;99.90;;;;;;5102313;28;20078;-90
2022/11/01 08:40:13;;;;;;;5.97;0.90;;;14.30;99.90;;;;;;5078621;28;20036;-85
2022/11/01 08:42:40;;;;;;;3.25;0.90;;;14.40;99.90;;;;;;5041266;28;20164;-85
2022/11/01 08:45:06;;;;;;;3.17;0.80;;;14.50;99.90;;;;;;5082440;28;20530;-85
2022/11/01 08:47:33;;;;;;;7.07;1.13;;;14.40;99.90;;;;;;5059239;28;20033;-85
2022/11/01 08:50:00;;;;;;;3.08;0.80;;;14.50;99.90;;;;;;5055709;28;20047;-85
2022/11/01 08:52:27;;;;;;;5.78;1.25;;;14.50;99.90;;;;;;5071788;28;20048;-86
2022/11/01 08:54:54;;;;;;;6.78;1.40;;;14.40;99.90;;;;;;5055425;28;20390;-86
2022/11/01 08:57:21;;;;;;;8.30;1.48;;;14.40;99.90;;;;;;5054475;28;20048;-86
2022/11/01 08:59:47;;;;;;;9.13;1.10;;;14.40;99.90;;;;;;5054780;28;20123;-88
2022/11/01 09:02:14;;;;;;;6.15;1.02;;;14.40;99.90;;;;;;5055220;28;20041;-87
2022/11/01 09:04:41;;;;;;;8.00;1.02;;;14.30;99.90;;;;;;5038653;28;20071;-86
2022/11/01 09:07:07;;;;;;;13.95;1.52;;;14.30;99.90;;;;;;5071440;28;20041;-86
2022/11/01 09:09:34;;;;;;;10.50;1.70;;;14.30;99.90;;;;;;5038803;28;20493;-83
2022/11/01 09:12:03;;;;;;;6.15;1.42;;;14.30;99.90;;;;;;5038410;28;20073;-85
2022/11/01 09:14:30;;;;;;;5.93;1.05;;;14.30;99.90;;;;;;5070734;28;20045;-84
2022/11/01 09:16:57;;;;;;;6.10;1.38;;;14.40;99.90;;;;;;5054407;28;20064;-85
2022/11/01 09:19:23;;;;;;;10.38;1.48;;;14.50;99.90;;;;;;5087529;28;20052;-85
2022/11/01 09:21:50;;;;;;;10.18;1.20;;;14.70;99.90;;;;;;5037676;28;20520;-85
2022/11/01 09:24:17;;;;;;;5.03;1.13;;;14.80;99.90;;;;;;5038335;28;20389;-85
2022/11/01 09:26:44;;;;;;;11.38;1.40;;;14.80;99.90;;;;;;5054148;28;20669;-85
2022/11/01 09:29:11;;;;;;;9.15;1.90;;;14.90;99.90;;;;;;5070767;28;20094;-85
2022/11/01 09:31:37;;;;;;;10.68;1.40;;;14.80;99.90;;;;;;5069867;28;20426;-85
2022/11/01 09:34:04;;;;;;;7.00;1.20;;;14.80;99.90;;;;;;5070678;28;20045;-85
2022/11/01 09:36:31;;;;;;;8.90;1.38;;;14.70;99.90;;;;;;5037814;28;20497;-85
2022/11/01 09:38:58;;;;;;;9.82;1.95;;;14.70;99.90;;;;;;5054005;28;20415;-86
2022/11/01 09:41:45;;;;;;;14.98;1.95;;;14.70;99.90;;;;;;5037821;28;20051;-85
2022/11/01 09:44:21;;;;;;;9.75;1.25;;;14.80;99.90;;;;;;5071227;28;20068;-86
2022/11/01 09:46:51;;;;;;;7.72;1.20;;;14.70;99.90;;;;;;5062980;28;20094;-86
2022/11/01 09:49:22;;;;;;;12.93;1.70;;;14.80;99.90;;;;;;5087456;28;20040;-86
2022/11/01 09:51:50;;;;;;;5.93;1.23;;;14.80;99.90;;;;;;5090641;28;20098;-85
2022/11/01 09:54:20;;;;;;;11.32;1.45;;;14.80;99.90;;;;;;5091080;28;20048;-85
2022/11/01 09:56:59;;;;;;;6.53;1.75;;;14.90;99.90;;;;;;5086024;28;20068;-85
2022/11/01 09:59:34;;;;;;;12.50;1.30;;;14.90;99.90;;;;;;5071488;28;20040;-85
2022/11/01 10:02:10;;;;;;;7.95;1.30;;;14.90;99.90;;;;;;5119480;28;20080;-85
2022/11/01 10:05:06;;;;;;;7.70;1.10;;;15.00;99.90;;;;;;5064871;28;20045;-83
2022/11/01 10:08:00;;;;;;;7.90;1.33;;;15.00;99.90;;;;;;5085786;28;20064;-85
2022/11/01 10:10:51;;;;;;;8.32;1.30;;;14.90;99.90;;;;;;5065944;28;20041;-85
2022/11/01 10:13:34;;;;;;;14.07;2.08;;;14.90;99.90;;;;;;5082246;28;20139;-86
2022/11/01 10:16:06;;;;;;;10.70;1.50;;;14.90;99.90;;;;;;5086828;28;20085;-87
2022/11/01 10:18:58;;;;;;;10.43;1.45;;;15.00;99.90;;;;;;5056899;28;20076;-87
2022/11/01 10:21:27;;;;;;;7.95;1.02;;;15.00;99.90;;;;;;5100535;28;20038;-86
2022/11/01 10:23:57;;;;;;;10.27;1.55;;;15.00;99.90;;;;;;5088710;28;20120;-87
2022/11/01 10:26:29;;;;;;;11.77;1.73;;;15.10;99.90;;;;;;5069363;28;20084;-86
2022/11/01 10:29:06;;;;;;;6.60;1.33;;;15.10;99.90;;;;;;5035481;28;20056;-87
2022/11/01 10:31:38;;;;;;;12.95;1.25;;;15.10;99.90;;;;;;5068140;28;20040;-85
2022/11/01 10:34:30;;;;;;;7.47;1.25;;;15.10;99.90;;;;;;5067789;28;20029;-86
2022/11/01 10:37:24;;;;;;;12.18;1.30;;;15.10;99.90;;;;;;5089335;28;20076;-86
2022/11/01 10:40:03;;;;;;;9.35;1.23;;;15.20;99.90;;;;;;5076819;28;20033;-86
2022/11/01 10:42:33;;;;;;;10.90;1.38;;;15.30;99.90;;;;;;5056226;28;20370;-87
2022/11/01 10:45:07;;;;;;;11.27;1.52;;;15.40;99.90;;;;;;5052817;28;20040;-87
2022/11/01 10:47:42;;;;;;;9.35;1.48;;;15.40;99.90;;;;;;5072701;28;20040;-85
2022/11/01 10:50:11;;;;;;;10.85;1.40;;;15.90;99.90;;;;;;5071070;28;20041;-85
2022/11/01 10:53:17;;;;;;;8.85;1.48;;;15.50;99.90;;;;;;5088782;28;20041;-85
2022/11/01 10:55:51;;;;;;;9.52;1.33;;;15.50;99.90;;;;;;4995961;28;20129;-85
2022/11/01 10:58:41;;;;;;;6.72;1.38;;;15.50;99.90;;;;;;5059611;28;20045;-86
2022/11/01 11:01:12;;;;;;;14.77;2.25;;;15.60;99.90;;;;;;5068969;28;20049;-86
2022/11/01 11:03:41;;;;;;;9.40;1.60;;;15.60;99.90;;;;;;5078410;28;20044;-90
2022/11/01 11:06:10;;;;;;;11.15;2.03;;;15.60;99.90;;;;;;5053741;28;20132;-92
2022/11/01 11:08:40;;;;;;;13.10;1.60;;;15.50;99.90;;;;;;5069743;28;20063;-91
2022/11/01 11:11:16;;;;;;;11.43;1.55;;;15.50;99.90;;;;;;5069971;28;20067;-86
2022/11/01 11:13:46;;;;;;;6.03;1.30;;;15.40;99.90;;;;;;5061580;28;20058;-87
2022/11/01 11:16:43;;;;;;;11.95;1.50;;;15.40;99.90;;;;;;5078318;28;20048;-87
2022/11/01 11:19:10;;;;;;;3.70;1.20;;;15.30;99.90;;;;;;5089009;28;20041;-87
2022/11/01 11:21:37;;;;;;;7.18;1.20;;;15.30;99.90;;;;;;5073253;28;20028;-86
2022/11/01 11:24:04;;;;;;;5.05;1.17;;;15.30;99.90;;;;;;5044068;28;20106;-88
2022/11/01 11:26:39;;;;;;;9.00;1.52;;;15.30;99.90;;;;;;5072285;28;20120;-87
2022/11/01 11:29:06;;;;;;;6.75;1.10;;;15.20;99.90;;;;;;5068833;28;20043;-87
2022/11/01 11:31:33;;;;;;;7.18;1.60;;;15.20;99.90;;;;;;5082789;28;20036;-87
2022/11/01 11:34:26;;;;;;;14.25;1.15;;;15.20;99.90;;;;;;5057052;28;20036;-87
2022/11/01 11:36:54;;;;;;;8.10;1.38;;;15.30;99.90;;;;;;5069270;28;20036;-87
2022/11/01 11:39:31;;;;;;;9.50;1.60;;;15.30;99.90;;;;;;5072416;28;20523;-87
2022/11/01 11:42:09;;;;;;;13.52;2.08;;;15.30;99.90;;;;;;5088901;28;20045;-87
2022/11/01 11:44:43;;;;;;;9.82;1.60;;;15.30;99.90;;;;;;5071439;28;20087;-87
2022/11/01 11:47:20;;;;;;;7.85;1.33;;;15.40;99.90;;;;;;5074706;28;20374;-87
2022/11/01 11:49:48;;;;;;;8.18;1.50;;;15.40;99.90;;;;;;5081827;28;20049;-87
2022/11/01 11:52:18;;;;;;;11.05;1.80;;;15.40;99.90;;;;;;5088624;28;20134;-87
2022/11/01 11:54:46;;;;;;;7.32;1.40;;;15.40;99.90;;;;;;5072423;28;20045;-88
2022/11/01 11:57:19;;;;;;;10.25;1.33;;;15.30;99.90;;;;;;5107540;28;20046;-87
2022/11/01 11:59:52;;;;;;;8.90;1.40;;;15.40;99.90;;;;;;5072983;28;20443;-88
2022/11/01 12:02:28;;;;;;;6.25;1.50;;;15.40;99.90;;;;;;5072384;28;20087;-87
2022/11/01 12:05:07;;;;;;;10.30;1.50;;;15.40;99.90;;;;;;5072201;28;20167;-86
2022/11/01 12:07:50;;;;;;;8.30;1.70;;;15.40;99.90;;;;;;5091481;28;20118;-87
2022/11/01 12:10:39;;;;;;;5.03;1.20;;;15.40;99.90;;;;;;5072285;28;20041;-86
2022/11/01 12:13:36;;;;;;;11.82;1.30;;;15.40;99.90;;;;;;5072336;28;20053;-87
2022/11/01 12:16:06;;;;;;;;;;;15.50;99.90;;;;;;5106046;28;20542;-86
2022/11/01 12:18:32;;;;;;;5.85;1.77;;;15.50;99.90;;;;;;5105943;28;19917;-88
2022/11/01 12:20:59;;;;;;;10.52;1.27;;;15.50;99.90;;;;;;5078425;28;20051;-87
2022/11/01 12:23:34;;;;;;;8.90;1.50;;;15.50;99.90;;;;;;5080066;28;20411;-87
2022/11/01 12:26:06;;;;;;;12.00;1.38;;;15.50;99.90;;;;;;5086906;28;20033;-87
2022/11/01 12:28:41;;;;;;;13.63;2.10;;;15.50;99.90;;;;;;5078101;28;20040;-87
2022/11/01 12:31:21;;;;;;;7.00;1.08;;;15.40;99.90;;;;;;5072665;28;20073;-88
2022/11/01 12:33:57;;;;;;;11.38;1.10;;;15.50;99.90;;;;;;5072353;28;20033;-88
2022/11/01 12:36:33;;;;;;;7.97;1.30;;;15.50;99.90;;;;;;5072999;28;20405;-88
2022/11/01 12:39:30;;;;;;;8.35;1.23;;;15.60;99.90;;;;;;5071880;28;20144;-88
2022/11/01 12:41:59;;;;;;;14.85;1.55;;;15.60;99.90;;;;;;5071095;28;20041;-87
2022/11/01 12:44:28;;;;;;;7.50;1.48;;;15.60;99.90;;;;;;5050958;28;20052;-88
2022/11/01 12:47:08;;;;;;;5.63;0.95;;;15.70;99.90;;;;;;5085698;28;20040;-88
2022/11/01 12:49:57;;;;;;;6.95;1.40;;;15.70;99.90;;;;;;5085350;28;20084;-89
2022/11/01 12:52:50;;;;;;;6.68;1.23;;;15.70;99.90;;;;;;5076595;28;20123;-87
2022/11/01 12:55:29;;;;;;;8.50;1.73;;;15.70;99.90;;;;;;5070438;28;20109;-87
2022/11/01 12:57:56;;;;;;;9.43;1.40;;;15.80;99.90;;;;;;5078188;28;20049;-86
2022/11/01 13:00:29;;;;;;;6.88;1.38;;;15.80;99.90;;;;;;5055361;28;20025;-86
2022/11/01 13:03:16;;;;;;;6.18;0.90;;;15.80;99.90;;;;;;5083033;28;20083;-86
2022/11/01 13:05:48;;;;;;;6.72;1.00;;;15.80;99.90;;;;;;5070256;28;20041;-86
2022/11/01 13:08:15;;;;;;;8.90;1.30;;;15.90;99.90;;;;;;5070086;28;20091;-87
2022/11/01 13:10:46;;;;;;;6.38;0.98;;;15.90;99.90;;;;;;5071368;28;20068;-88
2022/11/01 13:13:45;;;;;;;6.20;1.10;;;15.90;99.90;;;;;;5072096;28;20048;-88